Conger, Minnesota
Current Conditions -  °F | °C
As of 2:35 AM on Monday 26 Jan 2015 (Local Time) from KAEL Reporting Station
Overcast Overcast  
Wind Chill: 19°   Ceiling: 1700
Heat Index: 27°   Visibility: 10mi
Dew Point: 25°   Wind: 7mph
Humidity: 93%   Direction: 210°SSW
Pressure: 29.9"   Gusts: NA
Location:  43.61°N, 93.53°W
Report Text: KAEL 260835Z AUTO 21006KT 10SM OVC017 M03/M04 A2990 RMK AO2
Loading
Personal Weather Stations






























Interactive Weather Map New forecast layout! Learn more

10-Day Weather Forecast

Advertisements
Track Severe Weather on mobile